Leesville, Texas
Current Conditions -  °F | °C
As of 1:15 AM on Saturday 25 Oct 2014 (Local Time) from KT20 Reporting Station
Clear Clear  
Wind Chill: 66°   Ceiling: Unl
Heat Index: 66°   Visibility: 10mi
Dew Point: 60°   Wind: 3mph
Humidity: 80%   Direction: 170°S
Pressure: 30.14"   Gusts: NA
Location:  29.41°N, 97.75°W
Report Text: KT20 250615Z AUTO 17003KT 10SM CLR 19/15 A3014 RMK AO2 T01890153
Loading
Personal Weather Stations






























Interactive Weather Map
Tropical Storm Tracking
New forecast layout! Learn more

10-Day Weather Forecast

Advertisements
Track Severe Weather on mobile